• Join FlightAware (Why Join?)
  • Login
  • US Flag 
06:54AM EDT


 

Airport Tracker/Info


-or-


 

Live Flight TrackerFlight Track Log ✈ AWE3397 ✈ 25-Apr-2013 ✈ KPHL - KMSY

Flight Track Log - Related Links

Times and Time Zones

All times are in EDT time to prevent confusion due to time zone crossing. See the AWE3397 flight status page for this flight to view local times or setup timezone preferences in your user account.

Time Position Orientation Groundspeed Altitude Reporting Facility
EDT Latitude Longitude Course Direction KTS MPH feet Rate Location/Type
08:20AM 39.8592 -75.2814 258° West 136 157 800  Level FAA TRACON SMA TRACON (SMA)
08:20AM 39.8539 -75.3000 250° West 155 178 1,400 1,500 Climbing FAA TRACON SMA TRACON (SMA)
08:20AM 39.8486 -75.3175 249° West 172 198 1,800 1,500 Climbing FAA TRACON SMA TRACON (SMA)
08:21AM 39.8422 -75.3392 249° West 194 223 2,400 1,560 Climbing FAA TRACON SMA TRACON (SMA)
08:21AM 39.8367 -75.3606 251° West 206 237 2,900 2,220 Climbing FAA TRACON SMA TRACON (SMA)
08:21AM 39.8292 -75.3900 252° West 220 253 3,900 2,400 Climbing FAA TRACON SMA TRACON (SMA)
08:22AM 39.8269 -75.4142 263° West 223 257 4,500 1,920 Climbing FAA TRACON SMA TRACON (SMA)
08:22AM 39.8283 -75.4397 274° West 245 282 5,200 3,000 Climbing FAA TRACON SMA TRACON (SMA)
08:22AM 39.8297 -75.4761 273° West 244 281 6,500 3,600 Climbing FAA TRACON SMA TRACON (SMA)
08:23AM 39.8303 -75.5031 272° West 241 277 7,600 3,120 Climbing FAA TRACON SMA TRACON (SMA)
08:23AM 39.8311 -75.5294 272° West 240 276 8,600 2,820 Climbing FAA TRACON SMA TRACON (SMA)
08:23AM 39.8325 -75.5625 273° West 239 275 9,500 2,100 Climbing FAA TRACON SMA TRACON (SMA)
08:24AM 39.8215 -75.8543 258° West  Level FlightAware Approximate
08:24AM 39.8361 -75.5900 280° West 254 292 10,000  Level FAA TRACON SMA TRACON (SMA)
08:24AM 39.8397 -75.6183 279° West 275 316 10,000  Level FAA TRACON SMA TRACON (SMA)
08:24AM 39.8442 -75.6508 280° West 280 322 10,000  Level FAA TRACON SMA TRACON (SMA)
08:25AM 39.8007 -75.9793 258° West  Level FlightAware Approximate
08:25AM 39.8489 -75.6889 279° West 276 318 10,000  Level FAA TRACON SMA TRACON (SMA)
08:25AM 39.8525 -75.7192 279° West 275 316 10,200 1,320 Climbing FAA TRACON SMA TRACON (SMA)
08:25AM 39.8567 -75.7497 280° West 278 320 10,900 2,220 Climbing FAA TRACON SMA TRACON (SMA)
08:26AM 39.8617 -75.7847 281° West 276 318 11,700 2,700 Climbing FAA TRACON SMA TRACON (SMA)
08:26AM 39.8661 -75.8156 281° West 273 314 12,700 2,820 Climbing FAA TRACON SMA TRACON (SMA)
08:26AM 39.8725 -75.8458 285° West 268 308 13,600 2,520 Climbing FAA TRACON SMA TRACON (SMA)
08:27AM 39.8808 -75.8814 287° West 268 308 14,400 2,100 Climbing FAA TRACON SMA TRACON (SMA)
08:27AM 39.8803 -75.9108 269° West 267 307 15,000 2,100 Climbing FAA TRACON SMA TRACON (SMA)
08:27AM 39.8683 -75.9431 244° Southwest 263 303 15,800 2,220 Climbing FAA TRACON SMA TRACON (SMA)
08:28AM 39.8606 -75.9722 251° West 265 305 16,500 660 Climbing FAA TRACON SMA TRACON (SMA)
08:28AM 39.8606 -75.9722 201° Southwest 265 305 16,500 1,800 Level FAA TRACON SMA TRACON (SMA)
08:30AM 39.8028 -76.1617 248° West 273 314 20,500 2,280 Climbing New York Center
08:31AM 39.7672 -76.2508 243° Southwest 273 314 22,400 1,620 Climbing New York Center
08:32AM 39.7811 -76.3547 280° West 268 308 23,800 1,380 Climbing New York Center
08:33AM 39.8092 -76.4650 288° West 295 339 25,200 1,260 Climbing New York Center
08:34AM 39.8222 -76.5558 281° West 309 356 26,100 1,080 Climbing Washington Center
08:35AM 39.7675 -76.6442 231° Southwest 278 320 27,200 1,080 Climbing Washington Center
08:36AM 39.7000 -76.7242 222° Southwest 295 339 28,300 960 Climbing Washington Center
08:37AM 39.6325 -76.8067 223° Southwest 318 366 29,200 840 Climbing Washington Center
08:38AM 39.5628 -76.8889 222° Southwest 330 380 30,000 720 Climbing Washington Center
08:39AM 39.4931 -76.9764 224° Southwest 340 391 30,700 900 Climbing Washington Center
08:40AM 39.4172 -77.0583 220° Southwest 347 399 31,800 1,200 Climbing Washington Center
08:41AM 39.3453 -77.1347 219° Southwest 347 399 33,200 960 Climbing Washington Center
08:42AM 39.2736 -77.2108 219° Southwest 341 392 33,800 360 Climbing Washington Center
08:43AM 39.2017 -77.2869 219° Southwest 341 392 34,000 60 Climbing Washington Center
08:44AM 39.1256 -77.3656 219° Southwest 341 392 34,000  Level Washington Center
08:45AM 39.0514 -77.4411 218° Southwest 341 392 34,000  Level Washington Center
08:46AM 38.9792 -77.5169 219° Southwest 347 399 34,000  Level Washington Center
08:47AM 38.8986 -77.6056 221° Southwest 347 399 34,000  Level Washington Center
08:48AM 38.8308 -77.6728 218° Southwest 347 399 34,000  Level Washington Center
08:49AM 38.7436 -77.7608 218° Southwest 352 405 34,000  Level Washington Center
08:50AM 38.6694 -77.8358 218° Southwest 352 405 34,000  Level Washington Center
08:51AM 38.6053 -77.9242 227° Southwest 346 398 34,000  Level Washington Center
08:52AM 38.5511 -78.0208 234° Southwest 346 398 34,000  Level Washington Center
08:53AM 38.4950 -78.1172 233° Southwest 346 398 34,000  Level Washington Center
08:54AM 38.4386 -78.2133 233° Southwest 346 398 34,000  Level Washington Center
08:55AM 38.3822 -78.3092 233° Southwest 346 398 34,000  Level Washington Center
08:56AM 38.3239 -78.4050 232° Southwest 341 392 34,000  Level Washington Center
08:57AM 38.2672 -78.5008 233° Southwest 341 392 34,000  Level Washington Center
08:58AM 38.2192 -78.5889 235° Southwest 341 392 34,000  Level Washington Center
08:59AM 38.1667 -78.6869 236° Southwest 341 392 34,000  Level Washington Center
09:00AM 38.1142 -78.7878 237° Southwest 347 399 34,000  Level Washington Center
09:01AM 38.0656 -78.8858 238° Southwest 340 391 34,000  Level Washington Center
09:02AM 38.0081 -78.9967 237° Southwest 340 391 34,000  Level Washington Center
09:03AM 37.9575 -79.0919 236° Southwest 340 391 34,100  Climbing Washington Center
09:04AM 37.9044 -79.1947 237° Southwest 340 391 34,000 -60 Descending Washington Center
09:05AM 37.8533 -79.2922 236° Southwest 340 391 34,000  Level Washington Center
09:06AM 37.8069 -79.3819 237° Southwest 340 391 34,000  Level Washington Center
09:07AM 37.7536 -79.4817 236° Southwest 340 391 34,000  Level Washington Center
09:08AM 37.6983 -79.5761 234° Southwest 340 391 34,000  Level Washington Center
09:09AM 37.6403 -79.6858 236° Southwest 340 391 34,000  Level Washington Center
09:10AM 37.5956 -79.7750 238° Southwest 345 397 34,000  Level Washington Center
09:11AM 37.5353 -79.8869 236° Southwest 345 397 34,000  Level Washington Center
09:12AM 37.4881 -79.9786 237° Southwest 345 397 34,000  Level Washington Center
09:13AM 37.4344 -80.0750 235° Southwest 345 397 34,000  Level Washington Center
09:14AM 37.3808 -80.1736 236° Southwest 345 397 34,000  Level Washington Center
09:17AM 37.2119 -80.4842 236° Southwest 351 404 34,000  Level Atlanta Center
09:18AM 37.1625 -80.5725 235° Southwest 365 420 34,000  Level Atlanta Center
09:19AM 37.1069 -80.6711 235° Southwest 360 414 34,000  Level Atlanta Center
09:20AM 37.0619 -80.7797 243° Southwest 360 414 34,000  Level Atlanta Center
09:21AM 37.0250 -80.8853 246° West 350 403 34,000  Level Atlanta Center
09:22AM 36.9800 -81.0067 245° Southwest 345 397 34,000  Level Atlanta Center
09:23AM 36.9408 -81.1119 245° Southwest 345 397 34,000  Level Atlanta Center
09:24AM 36.9039 -81.2225 247° West 340 391 34,000  Level Atlanta Center
09:25AM 36.8644 -81.3275 245° Southwest 340 391 34,000  Level Atlanta Center
09:26AM 36.8314 -81.4272 248° West 345 397 34,000  Level Atlanta Center
09:27AM 36.7917 -81.5297 244° Southwest 340 391 34,000  Level Atlanta Center
09:28AM 36.7525 -81.6500 248° West 340 391 34,000  Level Atlanta Center
09:29AM 36.7128 -81.7575 245° Southwest 340 391 34,000  Level Atlanta Center
09:30AM 36.6750 -81.8644 246° West 340 391 34,000  Level Atlanta Center
09:31AM 36.6372 -81.9586 243° Southwest 340 391 34,000  Level Atlanta Center
09:32AM 36.5992 -82.0683 247° West 340 391 34,000  Level Atlanta Center
09:33AM 36.5403 -82.1653 233° Southwest 352 405 34,000  Level Atlanta Center
09:34AM 36.4833 -82.2647 235° Southwest 357 411 34,000  Level Atlanta Center
09:35AM 36.4264 -82.3667 235° Southwest 362 417 34,000  Level Atlanta Center
09:36AM 36.3694 -82.4658 235° Southwest 362 417 34,000  Level Atlanta Center
09:37AM 36.3100 -82.5650 233° Southwest 362 417 34,000  Level Atlanta Center
09:38AM 36.2403 -82.6564 227° Southwest 362 417 34,000  Level Atlanta Center
09:39AM 36.1556 -82.7325 216° Southwest 377 434 34,000  Level Atlanta Center
09:40AM 36.0647 -82.8211 218° Southwest 383 441 34,000  Level Atlanta Center
09:41AM 35.9925 -82.9122 226° Southwest 383 441 34,000  Level Atlanta Center
09:42AM 35.9203 -83.0028 225° Southwest 372 428 34,000  Level Atlanta Center
09:43AM 35.8503 -83.0908 226° Southwest 372 428 34,000  Level Atlanta Center
09:44AM 35.7778 -83.1839 226° Southwest 377 434 34,000  Level Atlanta Center
09:45AM 35.7097 -83.2792 229° Southwest 377 434 34,000  Level Atlanta Center
09:46AM 35.6392 -83.3692 226° Southwest 372 428 34,000  Level Atlanta Center
09:47AM 35.5750 -83.4642 230° Southwest 372 428 34,000  Level Atlanta Center
09:48AM 35.5192 -83.5667 236° Southwest 366 421 34,000  Level Atlanta Center
09:49AM 35.4611 -83.6692 235° Southwest 366 421 34,000  Level Atlanta Center
09:50AM 35.4050 -83.7711 236° Southwest 366 421 34,000  Level Atlanta Center
09:51AM 35.3489 -83.8733 236° Southwest 366 421 34,000  Level Atlanta Center
09:52AM 35.2906 -83.9753 235° Southwest 371 427 34,000  Level Atlanta Center
09:53AM 35.2342 -84.0769 236° Southwest 376 433 34,000  Level Atlanta Center
09:54AM 35.1758 -84.1786 235° Southwest 376 433 34,000  Level Atlanta Center
09:55AM 35.1172 -84.2825 235° Southwest 376 433 34,000  Level Atlanta Center
09:56AM 35.0586 -84.3839 235° Southwest 376 433 34,000  Level Atlanta Center
09:57AM 35.0019 -84.4850 236° Southwest 376 433 34,000  Level Atlanta Center
09:58AM 34.9431 -84.5861 235° Southwest 376 433 34,000  Level Atlanta Center
09:59AM 34.8842 -84.6894 235° Southwest 376 433 34,000  Level Atlanta Center
10:00AM 34.8250 -84.7953 236° Southwest 376 433 34,000  Level Atlanta Center
10:01AM 34.7703 -84.8858 234° Southwest 381 438 34,000  Level Atlanta Center
10:02AM 34.7131 -84.9864 235° Southwest 381 438 34,000  Level Atlanta Center
10:03AM 34.6494 -85.1019 236° Southwest 381 438 34,000  Level Atlanta Center
10:04AM 34.5925 -85.1919 232° Southwest 374 430 34,000  Level Atlanta Center
10:05AM 34.5331 -85.2944 235° Southwest 379 436 34,000  Level Atlanta Center
10:06AM 34.4733 -85.3944 234° Southwest 379 436 34,000  Level Atlanta Center
10:07AM 34.4158 -85.4967 236° Southwest 379 436 34,000  Level Atlanta Center
10:08AM 34.3606 -85.5964 236° Southwest 379 436 34,000  Level Atlanta Center
10:09AM 34.2986 -85.6983 234° Southwest 379 436 34,000  Level Atlanta Center
10:10AM 34.2408 -85.7953 234° Southwest 373 429 34,000  Level Atlanta Center
10:11AM 34.1789 -85.8919 232° Southwest 373 429 34,000  Level Atlanta Center
10:12AM 34.1211 -85.9936 236° Southwest 373 429 34,000  Level Atlanta Center
10:13AM 34.0589 -86.0950 233° Southwest 378 435 34,000  Level Atlanta Center
10:14AM 33.9986 -86.1961 234° Southwest 378 435 34,000  Level Atlanta Center
10:15AM 33.9364 -86.2972 233° Southwest 378 435 34,000  Level Atlanta Center
10:16AM 33.8781 -86.3958 235° Southwest 373 429 34,000  Level Atlanta Center
10:17AM 33.8178 -86.4967 234° Southwest 378 435 34,000  Level Atlanta Center
10:18AM 33.7553 -86.5972 233° Southwest 378 435 34,000  Level Atlanta Center
10:19AM 33.6947 -86.6978 234° Southwest 378 435 34,000  Level Atlanta Center
10:20AM 33.6319 -86.7983 233° Southwest 378 435 34,000  Level Atlanta Center
10:21AM 33.5711 -86.8986 234° Southwest 378 435 34,000  Level Atlanta Center
10:22AM 33.5103 -86.9986 234° Southwest 378 435 34,000  Level Atlanta Center
10:23AM 33.4494 -87.0986 234° Southwest 378 435 34,000  Level Atlanta Center
10:24AM 33.3864 -87.2008 234° Southwest 378 435 34,000  Level Atlanta Center
10:25AM 33.3253 -87.3031 234° Southwest 378 435 34,000  Level Atlanta Center
10:26AM 33.2619 -87.4050 233° Southwest 378 435 34,000  Level Atlanta Center
10:27AM 33.1481 -87.5833 233° Southwest 369 425 34,000  Level Memphis Center
10:28AM 33.0856 -87.6844 234° Southwest 375 432 34,000  Level Memphis Center
10:29AM 33.0231 -87.7881 234° Southwest 380 437 34,000  Level Memphis Center
10:30AM 32.9583 -87.8889 233° Southwest 380 437 34,000  Level Memphis Center
10:31AM 32.9000 -87.9919 236° Southwest 385 443 34,000  Level Memphis Center
10:32AM 32.8369 -88.0925 233° Southwest 390 449 34,000  Level Memphis Center
10:33AM 32.7719 -88.1931 232° Southwest 390 449 34,000  Level Memphis Center
10:34AM 32.7089 -88.2908 233° Southwest 390 449 34,000  Level Memphis Center
10:35AM 32.6458 -88.3908 233° Southwest 390 449 34,000  Level Memphis Center
10:36AM 32.5806 -88.4933 233° Southwest 390 449 34,000  Level Memphis Center
10:37AM 32.5175 -88.5908 233° Southwest 390 449 34,000  Level Memphis Center
10:38AM 32.4539 -88.6906 233° Southwest 390 449 34,000  Level Memphis Center
10:39AM 32.3886 -88.7903 232° Southwest 390 449 34,000  Level Memphis Center
10:40AM 32.3042 -88.8803 222° Southwest 390 449 34,000  Level Memphis Center
10:41AM 32.2194 -88.9625 219° Southwest 396 456 34,000  Level Memphis Center
10:42AM 32.1347 -89.0425 219° Southwest 402 463 34,000  Level Memphis Center
10:43AM 32.0458 -89.1269 219° Southwest 402 463 34,000  Level Memphis Center
10:44AM 31.9608 -89.2089 219° Southwest 402 463 34,000 -960 Level Memphis Center
10:46AM 31.8328 -89.3333 220° Southwest 401 461 31,700 -1,800 Descending Houston Center
10:47AM 31.7458 -89.4172 219° Southwest 405 466 29,500 -1,920 Descending Houston Center
10:48AM 31.6578 -89.5008 219° Southwest 408 470 27,800 -1,440 Descending Houston Center
10:49AM 31.5586 -89.5942 219° Southwest 401 461 26,600 -1,140 Descending Houston Center
10:50AM 31.4750 -89.6744 219° Southwest 393 452 25,500 -1,020 Descending Houston Center
10:51AM 31.3911 -89.7536 219° Southwest 389 448 24,500 -1,020 Descending Houston Center
10:52AM 31.3086 -89.8317 219° Southwest 384 442 23,500 -900 Descending Houston Center
10:53AM 31.2242 -89.9086 218° Southwest 384 442 22,700 -1,500 Descending Houston Center
10:54AM 31.1008 -89.9664 202° Southwest 396 456 20,400 -2,100 Descending Houston Center
10:55AM 31.0003 -90.0108 201° Southwest 389 448 18,400 -1,740 Descending Houston Center
10:56AM 30.9011 -90.0508 199° South 381 438 16,800 -1,680 Descending Houston Center
10:57AM 30.8072 -90.0903 200° South 364 419 15,000 -1,860 Descending Houston Center
10:58AM 30.7469 -90.1164 200° South 345 397 13,900 -1,800 Descending Houston Center
10:58AM 30.7169 -90.1292 200° South 351 404 13,200 -1,800 Descending Houston Center
10:59AM 30.6583 -90.1539 200° South 341 392 12,100 -1,680 Descending Houston Center
10:59AM 30.6308 -90.1664 201° Southwest 340 391 11,500 -1,620 Descending Houston Center
11:00AM 30.5803 -90.1958 207° Southwest 303 349 10,500 -1,800 Descending Houston Center
11:00AM 30.5431 -90.2194 209° Southwest 304 350 9,700 -1,500 Descending Houston Center
11:01AM 30.5083 -90.2397 207° Southwest 285 328 9,000 -1,500 Descending Houston Center
11:01AM 30.4744 -90.2614 209° Southwest 287 330 8,200 -1,500 Descending Houston Center
11:02AM 30.4367 -90.2858 209° Southwest 278 320 7,500 -1,380 Descending Houston Center
11:02AM 30.4067 -90.3042 208° Southwest 280 322 6,800 -1,380 Descending Houston Center
11:03AM 30.3692 -90.3297 210° Southwest 279 321 6,100 -1,380 Descending Houston Center
11:03AM 30.3411 -90.3481 209° Southwest 277 319 5,400 -1,380 Descending Houston Center
11:04AM 30.3014 -90.3708 206° Southwest 271 312 4,700 -1,380 Descending Houston Center
11:04AM 30.2622 -90.3972 210° Southwest 273 314 4,000 -720 Descending Houston Center
11:05AM 30.2378 -90.4119 207° Southwest 264 304 4,000  Level Houston Center
11:05AM 30.1986 -90.4358 208° Southwest 267 307 4,000  Level Houston Center
11:06AM 30.1742 -90.4481 203° Southwest 249 287 4,000 -240 Level Houston Center
11:06AM 30.1358 -90.4736 210° Southwest 260 299 3,800 -840 Descending Houston Center
11:07AM 30.1083 -90.4914 209° Southwest 254 292 3,200 -1,080 Descending Houston Center
11:08AM 30.0756 -90.5117 208° Southwest 255 293 2,700 -840 Descending Houston Center
11:08AM 30.0481 -90.5031 165° South 233 268 2,400 -600 Descending Houston Center
11:09AM 30.0439 -90.4694 98° East 231 266 2,100 -420 Descending Houston Center
11:09AM 30.0361 -90.4461 111° Southeast 175 201 2,000 -360 Descending Houston Center